sensor_id;sensor_type;location;lat;lon;timestamp;P1;durP1;ratioP1;P2;durP2;ratioP2
4268;SDS011;2148;48.554;7.834;2022-11-23T00:02:13;6.70;;;2.50;;
4268;SDS011;2148;48.554;7.834;2022-11-23T00:04:38;2.60;;;2.03;;
4268;SDS011;2148;48.554;7.834;2022-11-23T00:07:03;2.60;;;2.20;;
4268;SDS011;2148;48.554;7.834;2022-11-23T00:09:28;3.23;;;2.43;;
4268;SDS011;2148;48.554;7.834;2022-11-23T00:11:54;4.63;;;2.50;;
4268;SDS011;2148;48.554;7.834;2022-11-23T00:14:19;3.13;;;2.27;;
4268;SDS011;2148;48.554;7.834;2022-11-23T00:16:44;7.30;;;2.80;;
4268;SDS011;2148;48.554;7.834;2022-11-23T00:19:09;4.53;;;2.57;;
4268;SDS011;2148;48.554;7.834;2022-11-23T00:21:35;5.70;;;2.70;;
4268;SDS011;2148;48.554;7.834;2022-11-23T00:24:00;5.30;;;2.97;;
4268;SDS011;2148;48.554;7.834;2022-11-23T00:26:25;7.07;;;2.90;;
4268;SDS011;2148;48.554;7.834;2022-11-23T00:28:51;3.83;;;2.80;;
4268;SDS011;2148;48.554;7.834;2022-11-23T00:31:16;5.73;;;3.03;;
4268;SDS011;2148;48.554;7.834;2022-11-23T00:33:47;5.07;;;3.17;;
4268;SDS011;2148;48.554;7.834;2022-11-23T00:36:16;3.50;;;2.67;;
4268;SDS011;2148;48.554;7.834;2022-11-23T00:38:42;8.00;;;2.83;;
4268;SDS011;2148;48.554;7.834;2022-11-23T00:41:09;3.07;;;2.47;;
4268;SDS011;2148;48.554;7.834;2022-11-23T00:43:36;5.13;;;2.60;;
4268;SDS011;2148;48.554;7.834;2022-11-23T00:46:21;5.30;;;2.90;;
4268;SDS011;2148;48.554;7.834;2022-11-23T00:48:48;4.13;;;2.70;;
4268;SDS011;2148;48.554;7.834;2022-11-23T00:51:19;4.63;;;2.97;;
4268;SDS011;2148;48.554;7.834;2022-11-23T00:53:49;6.13;;;2.60;;
4268;SDS011;2148;48.554;7.834;2022-11-23T00:56:15;3.07;;;2.50;;
4268;SDS011;2148;48.554;7.834;2022-11-23T00:58:42;5.20;;;2.50;;
4268;SDS011;2148;48.554;7.834;2022-11-23T01:01:13;3.00;;;2.73;;
4268;SDS011;2148;48.554;7.834;2022-11-23T01:03:40;4.53;;;2.47;;
4268;SDS011;2148;48.554;7.834;2022-11-23T01:06:07;7.50;;;3.10;;
4268;SDS011;2148;48.554;7.834;2022-11-23T01:08:37;4.90;;;2.50;;
4268;SDS011;2148;48.554;7.834;2022-11-23T01:11:04;4.47;;;2.57;;
4268;SDS011;2148;48.554;7.834;2022-11-23T01:13:31;3.60;;;2.50;;
4268;SDS011;2148;48.554;7.834;2022-11-23T01:15:57;5.23;;;3.00;;
4268;SDS011;2148;48.554;7.834;2022-11-23T01:18:22;7.33;;;3.00;;
4268;SDS011;2148;48.554;7.834;2022-11-23T01:20:48;5.93;;;2.60;;
4268;SDS011;2148;48.554;7.834;2022-11-23T01:23:13;4.23;;;2.43;;
4268;SDS011;2148;48.554;7.834;2022-11-23T01:25:38;3.10;;;2.37;;
4268;SDS011;2148;48.554;7.834;2022-11-23T01:28:04;6.80;;;2.70;;
4268;SDS011;2148;48.554;7.834;2022-11-23T01:30:29;4.30;;;3.03;;
4268;SDS011;2148;48.554;7.834;2022-11-23T01:32:54;3.20;;;1.80;;
4268;SDS011;2148;48.554;7.834;2022-11-23T01:35:20;3.23;;;2.77;;
4268;SDS011;2148;48.554;7.834;2022-11-23T01:37:45;4.50;;;2.40;;
4268;SDS011;2148;48.554;7.834;2022-11-23T01:40:10;3.60;;;2.80;;
4268;SDS011;2148;48.554;7.834;2022-11-23T01:42:52;5.07;;;2.63;;
4268;SDS011;2148;48.554;7.834;2022-11-23T01:45:39;4.73;;;2.67;;
4268;SDS011;2148;48.554;7.834;2022-11-23T01:48:10;7.17;;;3.07;;
4268;SDS011;2148;48.554;7.834;2022-11-23T01:50:38;6.03;;;3.00;;
4268;SDS011;2148;48.554;7.834;2022-11-23T01:53:04;5.13;;;2.47;;
4268;SDS011;2148;48.554;7.834;2022-11-23T01:55:30;5.50;;;3.10;;
4268;SDS011;2148;48.554;7.834;2022-11-23T01:57:56;5.50;;;3.00;;
4268;SDS011;2148;48.554;7.834;2022-11-23T02:00:21;3.30;;;2.83;;
4268;SDS011;2148;48.554;7.834;2022-11-23T02:02:50;6.37;;;2.80;;
4268;SDS011;2148;48.554;7.834;2022-11-23T02:05:19;7.40;;;2.83;;
4268;SDS011;2148;48.554;7.834;2022-11-23T02:07:45;3.83;;;2.40;;
4268;SDS011;2148;48.554;7.834;2022-11-23T02:10:12;3.70;;;2.43;;
4268;SDS011;2148;48.554;7.834;2022-11-23T02:12:37;6.57;;;3.13;;
4268;SDS011;2148;48.554;7.834;2022-11-23T02:15:02;5.07;;;2.93;;
4268;SDS011;2148;48.554;7.834;2022-11-23T02:17:28;4.13;;;3.00;;
4268;SDS011;2148;48.554;7.834;2022-11-23T02:20:04;3.70;;;2.43;;
4268;SDS011;2148;48.554;7.834;2022-11-23T02:28:07;5.13;;;3.00;;
4268;SDS011;2148;48.554;7.834;2022-11-23T02:30:35;5.17;;;2.90;;
4268;SDS011;2148;48.554;7.834;2022-11-23T02:33:02;3.43;;;2.60;;
4268;SDS011;2148;48.554;7.834;2022-11-23T02:35:29;5.87;;;3.03;;
4268;SDS011;2148;48.554;7.834;2022-11-23T02:37:54;3.87;;;2.47;;
4268;SDS011;2148;48.554;7.834;2022-11-23T02:40:22;4.27;;;2.50;;
4268;SDS011;2148;48.554;7.834;2022-11-23T02:42:51;4.33;;;2.43;;
4268;SDS011;2148;48.554;7.834;2022-11-23T02:45:36;2.70;;;1.90;;
4268;SDS011;2148;48.554;7.834;2022-11-23T02:48:03;4.63;;;2.37;;
4268;SDS011;2148;48.554;7.834;2022-11-23T02:50:29;4.20;;;2.33;;
4268;SDS011;2148;48.554;7.834;2022-11-23T02:52:55;4.00;;;1.90;;
4268;SDS011;2148;48.554;7.834;2022-11-23T02:55:20;2.50;;;1.80;;
4268;SDS011;2148;48.554;7.834;2022-11-23T02:57:45;6.27;;;3.07;;
4268;SDS011;2148;48.554;7.834;2022-11-23T03:00:11;4.87;;;3.00;;
4268;SDS011;2148;48.554;7.834;2022-11-23T03:02:37;5.40;;;3.00;;
4268;SDS011;2148;48.554;7.834;2022-11-23T03:05:02;4.83;;;2.77;;
4268;SDS011;2148;48.554;7.834;2022-11-23T03:07:27;5.00;;;2.90;;
4268;SDS011;2148;48.554;7.834;2022-11-23T03:09:53;8.53;;;2.63;;
4268;SDS011;2148;48.554;7.834;2022-11-23T03:12:18;4.87;;;2.83;;
4268;SDS011;2148;48.554;7.834;2022-11-23T03:14:43;3.47;;;2.40;;
4268;SDS011;2148;48.554;7.834;2022-11-23T03:17:08;4.00;;;2.60;;
4268;SDS011;2148;48.554;7.834;2022-11-23T03:19:34;4.27;;;2.93;;
4268;SDS011;2148;48.554;7.834;2022-11-23T03:21:59;4.70;;;2.53;;
4268;SDS011;2148;48.554;7.834;2022-11-23T03:24:24;5.23;;;2.50;;
4268;SDS011;2148;48.554;7.834;2022-11-23T03:26:50;2.37;;;2.00;;
4268;SDS011;2148;48.554;7.834;2022-11-23T03:29:15;5.37;;;2.80;;
4268;SDS011;2148;48.554;7.834;2022-11-23T03:31:40;4.23;;;2.57;;
4268;SDS011;2148;48.554;7.834;2022-11-23T03:34:05;3.97;;;2.50;;
4268;SDS011;2148;48.554;7.834;2022-11-23T03:36:31;4.37;;;2.23;;
4268;SDS011;2148;48.554;7.834;2022-11-23T03:38:56;3.80;;;2.60;;
4268;SDS011;2148;48.554;7.834;2022-11-23T03:41:21;5.27;;;2.33;;
4268;SDS011;2148;48.554;7.834;2022-11-23T03:43:46;5.23;;;2.40;;
4268;SDS011;2148;48.554;7.834;2022-11-23T03:46:12;2.67;;;2.30;;
4268;SDS011;2148;48.554;7.834;2022-11-23T03:48:37;4.47;;;2.40;;
4268;SDS011;2148;48.554;7.834;2022-11-23T03:51:02;5.30;;;2.67;;
4268;SDS011;2148;48.554;7.834;2022-11-23T03:53:27;5.43;;;2.30;;
4268;SDS011;2148;48.554;7.834;2022-11-23T03:55:53;3.57;;;2.63;;
4268;SDS011;2148;48.554;7.834;2022-11-23T03:58:21;7.57;;;3.20;;
4268;SDS011;2148;48.554;7.834;2022-11-23T04:00:46;5.73;;;2.50;;
4268;SDS011;2148;48.554;7.834;2022-11-23T04:03:11;4.63;;;2.90;;
4268;SDS011;2148;48.554;7.834;2022-11-23T04:05:37;4.90;;;3.17;;
4268;SDS011;2148;48.554;7.834;2022-11-23T04:08:02;5.53;;;3.23;;
4268;SDS011;2148;48.554;7.834;2022-11-23T04:10:28;6.00;;;2.77;;
4268;SDS011;2148;48.554;7.834;2022-11-23T04:12:53;5.87;;;2.33;;
4268;SDS011;2148;48.554;7.834;2022-11-23T04:15:18;4.80;;;2.40;;
4268;SDS011;2148;48.554;7.834;2022-11-23T04:17:44;5.73;;;2.50;;
4268;SDS011;2148;48.554;7.834;2022-11-23T04:20:09;3.90;;;2.50;;
4268;SDS011;2148;48.554;7.834;2022-11-23T04:22:35;2.87;;;2.40;;
4268;SDS011;2148;48.554;7.834;2022-11-23T04:25:00;3.43;;;2.30;;
4268;SDS011;2148;48.554;7.834;2022-11-23T04:27:25;3.20;;;2.20;;
4268;SDS011;2148;48.554;7.834;2022-11-23T04:29:51;4.07;;;2.40;;
4268;SDS011;2148;48.554;7.834;2022-11-23T04:32:16;4.67;;;3.20;;
4268;SDS011;2148;48.554;7.834;2022-11-23T04:34:41;4.13;;;3.37;;
4268;SDS011;2148;48.554;7.834;2022-11-23T04:37:06;3.43;;;2.50;;
4268;SDS011;2148;48.554;7.834;2022-11-23T04:39:32;5.47;;;2.50;;
4268;SDS011;2148;48.554;7.834;2022-11-23T04:41:57;4.67;;;2.73;;
4268;SDS011;2148;48.554;7.834;2022-11-23T04:44:22;3.50;;;2.00;;
4268;SDS011;2148;48.554;7.834;2022-11-23T04:46:47;3.50;;;2.40;;
4268;SDS011;2148;48.554;7.834;2022-11-23T04:49:14;3.70;;;2.23;;
4268;SDS011;2148;48.554;7.834;2022-11-23T04:51:39;3.13;;;2.10;;
4268;SDS011;2148;48.554;7.834;2022-11-23T04:54:05;3.23;;;2.27;;
4268;SDS011;2148;48.554;7.834;2022-11-23T04:56:30;3.17;;;2.13;;
4268;SDS011;2148;48.554;7.834;2022-11-23T04:58:55;5.77;;;2.50;;
4268;SDS011;2148;48.554;7.834;2022-11-23T05:01:21;2.73;;;2.27;;
4268;SDS011;2148;48.554;7.834;2022-11-23T05:03:46;3.53;;;2.07;;
4268;SDS011;2148;48.554;7.834;2022-11-23T05:06:12;4.23;;;2.50;;
4268;SDS011;2148;48.554;7.834;2022-11-23T05:08:37;4.80;;;2.37;;
4268;SDS011;2148;48.554;7.834;2022-11-23T05:11:02;6.23;;;2.63;;
4268;SDS011;2148;48.554;7.834;2022-11-23T05:13:28;5.00;;;2.53;;
4268;SDS011;2148;48.554;7.834;2022-11-23T05:15:53;5.70;;;2.50;;
4268;SDS011;2148;48.554;7.834;2022-11-23T05:18:18;4.57;;;2.20;;
4268;SDS011;2148;48.554;7.834;2022-11-23T05:20:44;3.60;;;2.30;;
4268;SDS011;2148;48.554;7.834;2022-11-23T05:23:10;4.30;;;2.07;;
4268;SDS011;2148;48.554;7.834;2022-11-23T05:25:35;4.83;;;2.20;;
4268;SDS011;2148;48.554;7.834;2022-11-23T05:28:01;4.40;;;1.83;;
4268;SDS011;2148;48.554;7.834;2022-11-23T05:30:26;4.20;;;2.30;;
4268;SDS011;2148;48.554;7.834;2022-11-23T05:32:51;5.60;;;2.80;;
4268;SDS011;2148;48.554;7.834;2022-11-23T05:35:17;3.60;;;2.10;;
4268;SDS011;2148;48.554;7.834;2022-11-23T05:37:43;3.67;;;2.20;;
4268;SDS011;2148;48.554;7.834;2022-11-23T05:40:08;4.47;;;2.40;;
4268;SDS011;2148;48.554;7.834;2022-11-23T05:42:35;2.83;;;2.20;;
4268;SDS011;2148;48.554;7.834;2022-11-23T05:45:00;4.00;;;2.20;;
4268;SDS011;2148;48.554;7.834;2022-11-23T05:47:25;2.27;;;2.03;;
4268;SDS011;2148;48.554;7.834;2022-11-23T05:49:50;4.37;;;2.20;;
4268;SDS011;2148;48.554;7.834;2022-11-23T05:52:16;4.87;;;2.10;;
4268;SDS011;2148;48.554;7.834;2022-11-23T05:54:41;4.13;;;2.40;;
4268;SDS011;2148;48.554;7.834;2022-11-23T05:57:06;3.73;;;2.30;;
4268;SDS011;2148;48.554;7.834;2022-11-23T05:59:32;4.53;;;2.40;;
4268;SDS011;2148;48.554;7.834;2022-11-23T06:01:57;4.93;;;2.20;;
4268;SDS011;2148;48.554;7.834;2022-11-23T06:04:22;3.37;;;2.10;;
4268;SDS011;2148;48.554;7.834;2022-11-23T06:06:48;4.00;;;1.97;;
4268;SDS011;2148;48.554;7.834;2022-11-23T06:09:13;2.10;;;1.90;;
4268;SDS011;2148;48.554;7.834;2022-11-23T06:11:38;5.50;;;2.30;;
4268;SDS011;2148;48.554;7.834;2022-11-23T06:14:03;4.73;;;2.10;;
4268;SDS011;2148;48.554;7.834;2022-11-23T06:16:29;2.27;;;2.00;;
4268;SDS011;2148;48.554;7.834;2022-11-23T06:18:54;3.57;;;2.30;;
4268;SDS011;2148;48.554;7.834;2022-11-23T06:21:19;7.40;;;2.63;;
4268;SDS011;2148;48.554;7.834;2022-11-23T06:23:48;2.80;;;2.33;;
4268;SDS011;2148;48.554;7.834;2022-11-23T06:26:13;4.53;;;2.70;;
4268;SDS011;2148;48.554;7.834;2022-11-23T06:28:38;2.97;;;2.57;;
4268;SDS011;2148;48.554;7.834;2022-11-23T06:31:05;5.93;;;2.77;;
4268;SDS011;2148;48.554;7.834;2022-11-23T06:33:31;3.13;;;2.70;;
4268;SDS011;2148;48.554;7.834;2022-11-23T06:36:00;3.53;;;2.33;;
4268;SDS011;2148;48.554;7.834;2022-11-23T06:38:26;4.77;;;2.50;;
4268;SDS011;2148;48.554;7.834;2022-11-23T06:40:51;5.93;;;2.87;;
4268;SDS011;2148;48.554;7.834;2022-11-23T06:43:17;6.47;;;3.20;;
4268;SDS011;2148;48.554;7.834;2022-11-23T06:45:42;6.30;;;2.80;;
4268;SDS011;2148;48.554;7.834;2022-11-23T06:48:07;6.90;;;3.13;;
4268;SDS011;2148;48.554;7.834;2022-11-23T06:50:32;5.83;;;2.60;;
4268;SDS011;2148;48.554;7.834;2022-11-23T06:52:58;3.30;;;2.57;;
4268;SDS011;2148;48.554;7.834;2022-11-23T06:55:24;5.53;;;2.80;;
4268;SDS011;2148;48.554;7.834;2022-11-23T06:57:49;4.67;;;2.87;;
4268;SDS011;2148;48.554;7.834;2022-11-23T07:00:15;2.90;;;2.60;;
4268;SDS011;2148;48.554;7.834;2022-11-23T07:02:41;4.70;;;2.40;;
4268;SDS011;2148;48.554;7.834;2022-11-23T07:05:06;2.97;;;2.57;;
4268;SDS011;2148;48.554;7.834;2022-11-23T07:07:32;4.20;;;2.57;;
4268;SDS011;2148;48.554;7.834;2022-11-23T07:09:57;4.23;;;2.50;;
4268;SDS011;2148;48.554;7.834;2022-11-23T07:12:23;4.43;;;3.00;;
4268;SDS011;2148;48.554;7.834;2022-11-23T07:14:48;6.23;;;2.60;;
4268;SDS011;2148;48.554;7.834;2022-11-23T07:17:13;5.43;;;2.50;;
4268;SDS011;2148;48.554;7.834;2022-11-23T07:19:38;5.13;;;2.70;;
4268;SDS011;2148;48.554;7.834;2022-11-23T07:22:04;5.07;;;2.70;;
4268;SDS011;2148;48.554;7.834;2022-11-23T07:24:29;4.73;;;3.00;;
4268;SDS011;2148;48.554;7.834;2022-11-23T07:26:54;3.80;;;2.63;;
4268;SDS011;2148;48.554;7.834;2022-11-23T07:29:20;3.43;;;2.80;;
4268;SDS011;2148;48.554;7.834;2022-11-23T07:31:45;4.20;;;2.87;;
4268;SDS011;2148;48.554;7.834;2022-11-23T07:34:10;4.67;;;2.87;;
4268;SDS011;2148;48.554;7.834;2022-11-23T07:36:36;3.23;;;2.70;;
4268;SDS011;2148;48.554;7.834;2022-11-23T07:39:02;3.67;;;2.50;;
4268;SDS011;2148;48.554;7.834;2022-11-23T07:41:27;4.60;;;2.80;;
4268;SDS011;2148;48.554;7.834;2022-11-23T07:43:52;6.73;;;3.60;;
4268;SDS011;2148;48.554;7.834;2022-11-23T07:46:18;4.63;;;3.10;;
4268;SDS011;2148;48.554;7.834;2022-11-23T07:48:43;4.63;;;3.07;;
4268;SDS011;2148;48.554;7.834;2022-11-23T07:51:08;4.83;;;3.57;;
4268;SDS011;2148;48.554;7.834;2022-11-23T07:53:33;3.00;;;2.70;;
4268;SDS011;2148;48.554;7.834;2022-11-23T07:56:00;3.63;;;2.90;;
4268;SDS011;2148;48.554;7.834;2022-11-23T07:58:26;4.60;;;3.20;;
4268;SDS011;2148;48.554;7.834;2022-11-23T08:00:51;6.37;;;4.30;;
4268;SDS011;2148;48.554;7.834;2022-11-23T08:03:17;6.67;;;4.00;;
4268;SDS011;2148;48.554;7.834;2022-11-23T08:05:42;5.40;;;3.00;;
4268;SDS011;2148;48.554;7.834;2022-11-23T08:08:07;4.47;;;2.83;;
4268;SDS011;2148;48.554;7.834;2022-11-23T08:10:33;4.30;;;3.23;;
4268;SDS011;2148;48.554;7.834;2022-11-23T08:12:59;4.57;;;2.90;;
4268;SDS011;2148;48.554;7.834;2022-11-23T08:15:26;4.93;;;3.13;;
4268;SDS011;2148;48.554;7.834;2022-11-23T08:17:55;4.67;;;2.80;;
4268;SDS011;2148;48.554;7.834;2022-11-23T08:20:27;6.80;;;2.80;;
4268;SDS011;2148;48.554;7.834;2022-11-23T08:22:53;5.67;;;2.73;;
4268;SDS011;2148;48.554;7.834;2022-11-23T08:25:23;6.27;;;2.90;;
4268;SDS011;2148;48.554;7.834;2022-11-23T08:28:00;9.20;;;2.83;;
4268;SDS011;2148;48.554;7.834;2022-11-23T08:30:27;7.93;;;3.57;;
4268;SDS011;2148;48.554;7.834;2022-11-23T08:32:53;5.73;;;3.40;;
4268;SDS011;2148;48.554;7.834;2022-11-23T08:35:18;4.93;;;3.17;;
4268;SDS011;2148;48.554;7.834;2022-11-23T08:37:44;6.03;;;2.73;;
4268;SDS011;2148;48.554;7.834;2022-11-23T08:40:09;4.40;;;3.00;;
4268;SDS011;2148;48.554;7.834;2022-11-23T08:42:35;4.80;;;3.77;;
4268;SDS011;2148;48.554;7.834;2022-11-23T08:45:01;3.77;;;3.00;;
4268;SDS011;2148;48.554;7.834;2022-11-23T08:47:28;3.63;;;2.90;;
4268;SDS011;2148;48.554;7.834;2022-11-23T08:49:53;5.63;;;2.57;;
4268;SDS011;2148;48.554;7.834;2022-11-23T08:52:18;5.70;;;3.27;;
4268;SDS011;2148;48.554;7.834;2022-11-23T08:54:43;3.97;;;3.00;;
4268;SDS011;2148;48.554;7.834;2022-11-23T08:57:09;4.10;;;3.37;;
4268;SDS011;2148;48.554;7.834;2022-11-23T08:59:34;5.23;;;3.20;;
4268;SDS011;2148;48.554;7.834;2022-11-23T09:01:59;6.40;;;3.40;;
4268;SDS011;2148;48.554;7.834;2022-11-23T09:04:24;6.43;;;3.67;;
4268;SDS011;2148;48.554;7.834;2022-11-23T09:06:51;5.27;;;3.03;;
4268;SDS011;2148;48.554;7.834;2022-11-23T09:09:17;8.27;;;3.17;;
4268;SDS011;2148;48.554;7.834;2022-11-23T09:11:42;4.30;;;3.00;;
4268;SDS011;2148;48.554;7.834;2022-11-23T09:14:07;5.20;;;3.40;;
4268;SDS011;2148;48.554;7.834;2022-11-23T09:16:32;5.40;;;3.00;;
4268;SDS011;2148;48.554;7.834;2022-11-23T09:18:58;6.00;;;3.20;;
4268;SDS011;2148;48.554;7.834;2022-11-23T09:21:23;4.33;;;2.43;;
4268;SDS011;2148;48.554;7.834;2022-11-23T09:23:53;3.03;;;2.63;;
4268;SDS011;2148;48.554;7.834;2022-11-23T09:26:19;4.50;;;2.87;;
4268;SDS011;2148;48.554;7.834;2022-11-23T09:28:44;5.43;;;3.00;;
4268;SDS011;2148;48.554;7.834;2022-11-23T09:31:09;5.33;;;2.77;;
4268;SDS011;2148;48.554;7.834;2022-11-23T09:33:34;6.33;;;3.13;;
4268;SDS011;2148;48.554;7.834;2022-11-23T09:36:00;5.50;;;3.03;;
4268;SDS011;2148;48.554;7.834;2022-11-23T09:38:28;5.43;;;2.80;;
4268;SDS011;2148;48.554;7.834;2022-11-23T09:41:00;5.63;;;2.53;;
4268;SDS011;2148;48.554;7.834;2022-11-23T09:43:39;4.33;;;2.43;;
4268;SDS011;2148;48.554;7.834;2022-11-23T09:49:03;4.17;;;2.90;;
4268;SDS011;2148;48.554;7.834;2022-11-23T09:51:35;4.27;;;2.40;;
4268;SDS011;2148;48.554;7.834;2022-11-23T09:54:03;4.43;;;2.90;;
4268;SDS011;2148;48.554;7.834;2022-11-23T09:56:33;5.50;;;3.07;;
4268;SDS011;2148;48.554;7.834;2022-11-23T09:59:00;4.17;;;2.63;;
4268;SDS011;2148;48.554;7.834;2022-11-23T10:01:27;6.20;;;2.87;;
4268;SDS011;2148;48.554;7.834;2022-11-23T10:03:54;5.53;;;2.73;;
4268;SDS011;2148;48.554;7.834;2022-11-23T10:06:26;6.20;;;2.50;;
4268;SDS011;2148;48.554;7.834;2022-11-23T10:08:56;6.80;;;3.00;;
4268;SDS011;2148;48.554;7.834;2022-11-23T10:14:28;3.10;;;1.93;;
4268;SDS011;2148;48.554;7.834;2022-11-23T10:20:16;4.50;;;3.40;;
4268;SDS011;2148;48.554;7.834;2022-11-23T10:22:56;5.67;;;3.10;;
4268;SDS011;2148;48.554;7.834;2022-11-23T10:25:23;5.00;;;3.00;;
4268;SDS011;2148;48.554;7.834;2022-11-23T10:27:50;3.10;;;2.40;;
4268;SDS011;2148;48.554;7.834;2022-11-23T10:30:18;2.57;;;2.20;;
4268;SDS011;2148;48.554;7.834;2022-11-23T10:32:55;6.40;;;2.77;;
4268;SDS011;2148;48.554;7.834;2022-11-23T10:35:31;3.70;;;2.23;;
4268;SDS011;2148;48.554;7.834;2022-11-23T10:38:08;4.87;;;3.23;;
4268;SDS011;2148;48.554;7.834;2022-11-23T10:40:37;4.67;;;2.43;;
4268;SDS011;2148;48.554;7.834;2022-11-23T10:43:10;4.63;;;2.30;;
4268;SDS011;2148;48.554;7.834;2022-11-23T10:45:39;3.60;;;2.43;;
4268;SDS011;2148;48.554;7.834;2022-11-23T10:48:05;4.17;;;2.50;;
4268;SDS011;2148;48.554;7.834;2022-11-23T10:50:34;5.33;;;2.80;;
4268;SDS011;2148;48.554;7.834;2022-11-23T10:55:33;5.83;;;3.03;;
4268;SDS011;2148;48.554;7.834;2022-11-23T10:58:30;4.93;;;3.20;;
4268;SDS011;2148;48.554;7.834;2022-11-23T11:01:01;9.00;;;2.90;;
4268;SDS011;2148;48.554;7.834;2022-11-23T11:03:29;6.33;;;2.77;;
4268;SDS011;2148;48.554;7.834;2022-11-23T11:05:57;5.50;;;2.57;;
4268;SDS011;2148;48.554;7.834;2022-11-23T11:08:24;7.00;;;2.90;;
4268;SDS011;2148;48.554;7.834;2022-11-23T11:11:06;4.07;;;2.50;;
4268;SDS011;2148;48.554;7.834;2022-11-23T11:18:55;6.77;;;2.70;;
4268;SDS011;2148;48.554;7.834;2022-11-23T11:21:29;4.63;;;2.47;;
4268;SDS011;2148;48.554;7.834;2022-11-23T11:24:03;6.77;;;2.90;;
4268;SDS011;2148;48.554;7.834;2022-11-23T11:26:31;5.77;;;2.83;;
4268;SDS011;2148;48.554;7.834;2022-11-23T11:29:01;4.13;;;2.77;;
4268;SDS011;2148;48.554;7.834;2022-11-23T11:31:46;7.47;;;2.97;;
4268;SDS011;2148;48.554;7.834;2022-11-23T11:34:23;4.07;;;2.57;;
4268;SDS011;2148;48.554;7.834;2022-11-23T11:36:56;5.67;;;2.63;;
4268;SDS011;2148;48.554;7.834;2022-11-23T11:39:28;4.60;;;2.40;;
4268;SDS011;2148;48.554;7.834;2022-11-23T11:41:57;2.73;;;2.33;;
4268;SDS011;2148;48.554;7.834;2022-11-23T11:44:24;4.87;;;2.80;;
4268;SDS011;2148;48.554;7.834;2022-11-23T11:46:59;5.67;;;2.73;;
4268;SDS011;2148;48.554;7.834;2022-11-23T11:49:35;4.53;;;2.77;;
4268;SDS011;2148;48.554;7.834;2022-11-23T11:52:08;5.23;;;2.57;;
4268;SDS011;2148;48.554;7.834;2022-11-23T11:54:41;4.77;;;2.27;;
4268;SDS011;2148;48.554;7.834;2022-11-23T11:57:13;6.13;;;2.50;;
4268;SDS011;2148;48.554;7.834;2022-11-23T11:59:42;4.57;;;2.73;;
4268;SDS011;2148;48.554;7.834;2022-11-23T12:07:45;4.60;;;3.10;;
4268;SDS011;2148;48.554;7.834;2022-11-23T12:10:20;4.53;;;2.40;;
4268;SDS011;2148;48.554;7.834;2022-11-23T12:12:50;5.10;;;2.13;;
4268;SDS011;2148;48.554;7.834;2022-11-23T12:15:19;3.33;;;2.43;;
4268;SDS011;2148;48.554;7.834;2022-11-23T12:17:53;6.00;;;3.00;;
4268;SDS011;2148;48.554;7.834;2022-11-23T12:20:36;5.13;;;2.60;;
4268;SDS011;2148;48.554;7.834;2022-11-23T12:25:36;3.70;;;2.30;;
4268;SDS011;2148;48.554;7.834;2022-11-23T12:31:15;4.03;;;2.40;;
4268;SDS011;2148;48.554;7.834;2022-11-23T12:42:00;5.83;;;2.53;;
4268;SDS011;2148;48.554;7.834;2022-11-23T12:51:05;4.57;;;2.40;;
4268;SDS011;2148;48.554;7.834;2022-11-23T12:59:09;3.00;;;2.20;;
4268;SDS011;2148;48.554;7.834;2022-11-23T13:01:36;3.07;;;2.13;;
4268;SDS011;2148;48.554;7.834;2022-11-23T13:04:14;3.47;;;2.53;;
4268;SDS011;2148;48.554;7.834;2022-11-23T13:07:01;2.93;;;2.00;;
4268;SDS011;2148;48.554;7.834;2022-11-23T13:18:38;4.10;;;2.20;;
4268;SDS011;2148;48.554;7.834;2022-11-23T13:21:23;4.87;;;2.03;;
4268;SDS011;2148;48.554;7.834;2022-11-23T13:23:53;2.47;;;1.90;;
4268;SDS011;2148;48.554;7.834;2022-11-23T13:26:19;3.53;;;2.53;;
4268;SDS011;2148;48.554;7.834;2022-11-23T13:28:46;3.20;;;2.00;;
4268;SDS011;2148;48.554;7.834;2022-11-23T13:33:47;2.57;;;1.70;;
4268;SDS011;2148;48.554;7.834;2022-11-23T13:38:54;3.00;;;2.00;;
4268;SDS011;2148;48.554;7.834;2022-11-23T13:43:57;3.83;;;2.27;;
4268;SDS011;2148;48.554;7.834;2022-11-23T13:46:24;4.40;;;2.03;;
4268;SDS011;2148;48.554;7.834;2022-11-23T13:48:53;9.43;;;2.20;;
4268;SDS011;2148;48.554;7.834;2022-11-23T13:51:24;3.67;;;2.10;;
4268;SDS011;2148;48.554;7.834;2022-11-23T13:53:58;5.93;;;1.93;;
4268;SDS011;2148;48.554;7.834;2022-11-23T13:56:40;3.03;;;2.00;;
4268;SDS011;2148;48.554;7.834;2022-11-23T14:04:36;1.77;;;1.60;;
4268;SDS011;2148;48.554;7.834;2022-11-23T14:12:19;3.43;;;1.87;;
4268;SDS011;2148;48.554;7.834;2022-11-23T14:15:11;3.10;;;1.90;;
4268;SDS011;2148;48.554;7.834;2022-11-23T14:17:41;2.03;;;1.70;;
4268;SDS011;2148;48.554;7.834;2022-11-23T14:20:42;3.60;;;2.03;;
4268;SDS011;2148;48.554;7.834;2022-11-23T14:26:11;3.47;;;1.97;;
4268;SDS011;2148;48.554;7.834;2022-11-23T14:29:04;2.00;;;1.80;;
4268;SDS011;2148;48.554;7.834;2022-11-23T14:31:59;4.37;;;1.90;;
4268;SDS011;2148;48.554;7.834;2022-11-23T14:40:20;2.17;;;1.80;;
4268;SDS011;2148;48.554;7.834;2022-11-23T14:42:51;2.40;;;1.60;;
4268;SDS011;2148;48.554;7.834;2022-11-23T14:45:22;2.90;;;1.57;;
4268;SDS011;2148;48.554;7.834;2022-11-23T14:47:49;2.93;;;1.70;;
4268;SDS011;2148;48.554;7.834;2022-11-23T14:50:22;1.97;;;1.73;;
4268;SDS011;2148;48.554;7.834;2022-11-23T14:52:49;2.60;;;1.77;;
4268;SDS011;2148;48.554;7.834;2022-11-23T14:55:18;2.87;;;2.13;;
4268;SDS011;2148;48.554;7.834;2022-11-23T14:57:46;4.83;;;1.83;;
4268;SDS011;2148;48.554;7.834;2022-11-23T15:03:07;3.03;;;1.90;;
4268;SDS011;2148;48.554;7.834;2022-11-23T15:05:34;2.97;;;1.60;;
4268;SDS011;2148;48.554;7.834;2022-11-23T15:08:04;2.03;;;1.87;;
4268;SDS011;2148;48.554;7.834;2022-11-23T15:11:16;2.23;;;1.80;;
4268;SDS011;2148;48.554;7.834;2022-11-23T15:13:46;2.73;;;1.80;;
4268;SDS011;2148;48.554;7.834;2022-11-23T15:16:17;2.17;;;1.90;;
4268;SDS011;2148;48.554;7.834;2022-11-23T15:18:44;4.13;;;2.10;;
4268;SDS011;2148;48.554;7.834;2022-11-23T15:23:37;3.30;;;1.50;;
4268;SDS011;2148;48.554;7.834;2022-11-23T15:26:05;2.03;;;1.60;;
4268;SDS011;2148;48.554;7.834;2022-11-23T15:28:37;4.37;;;1.80;;
4268;SDS011;2148;48.554;7.834;2022-11-23T15:33:49;3.17;;;1.90;;
4268;SDS011;2148;48.554;7.834;2022-11-23T15:36:20;2.83;;;2.10;;
4268;SDS011;2148;48.554;7.834;2022-11-23T15:38:48;3.00;;;2.13;;
4268;SDS011;2148;48.554;7.834;2022-11-23T15:41:14;2.83;;;2.13;;
4268;SDS011;2148;48.554;7.834;2022-11-23T15:43:50;3.30;;;2.30;;
4268;SDS011;2148;48.554;7.834;2022-11-23T15:46:16;3.37;;;2.00;;
4268;SDS011;2148;48.554;7.834;2022-11-23T15:48:41;3.57;;;2.40;;
4268;SDS011;2148;48.554;7.834;2022-11-23T15:51:06;3.97;;;2.40;;
4268;SDS011;2148;48.554;7.834;2022-11-23T15:53:43;3.83;;;2.37;;
4268;SDS011;2148;48.554;7.834;2022-11-23T15:56:13;2.10;;;1.90;;
4268;SDS011;2148;48.554;7.834;2022-11-23T16:01:54;2.73;;;2.00;;
4268;SDS011;2148;48.554;7.834;2022-11-23T16:07:09;4.67;;;2.87;;
4268;SDS011;2148;48.554;7.834;2022-11-23T16:09:40;4.13;;;2.10;;
4268;SDS011;2148;48.554;7.834;2022-11-23T16:12:20;3.47;;;2.47;;
4268;SDS011;2148;48.554;7.834;2022-11-23T16:14:56;2.17;;;1.97;;
4268;SDS011;2148;48.554;7.834;2022-11-23T16:17:23;3.70;;;2.20;;
4268;SDS011;2148;48.554;7.834;2022-11-23T16:19:56;2.50;;;2.30;;
4268;SDS011;2148;48.554;7.834;2022-11-23T16:25:08;3.37;;;2.70;;
4268;SDS011;2148;48.554;7.834;2022-11-23T16:27:46;3.53;;;2.70;;
4268;SDS011;2148;48.554;7.834;2022-11-23T16:30:25;3.10;;;2.40;;
4268;SDS011;2148;48.554;7.834;2022-11-23T16:32:51;4.57;;;2.47;;
4268;SDS011;2148;48.554;7.834;2022-11-23T16:35:17;3.93;;;3.33;;
4268;SDS011;2148;48.554;7.834;2022-11-23T16:37:44;4.63;;;2.63;;
4268;SDS011;2148;48.554;7.834;2022-11-23T16:40:10;3.57;;;2.40;;
4268;SDS011;2148;48.554;7.834;2022-11-23T16:42:35;6.57;;;2.30;;
4268;SDS011;2148;48.554;7.834;2022-11-23T16:45:01;3.60;;;2.70;;
4268;SDS011;2148;48.554;7.834;2022-11-23T16:47:26;3.93;;;2.77;;
4268;SDS011;2148;48.554;7.834;2022-11-23T16:49:52;4.10;;;3.23;;
4268;SDS011;2148;48.554;7.834;2022-11-23T16:52:18;4.33;;;2.53;;
4268;SDS011;2148;48.554;7.834;2022-11-23T16:54:44;3.63;;;2.80;;
4268;SDS011;2148;48.554;7.834;2022-11-23T16:57:14;4.03;;;3.30;;
4268;SDS011;2148;48.554;7.834;2022-11-23T16:59:47;2.90;;;2.60;;
4268;SDS011;2148;48.554;7.834;2022-11-23T17:02:13;3.10;;;2.70;;
4268;SDS011;2148;48.554;7.834;2022-11-23T17:04:39;3.73;;;3.20;;
4268;SDS011;2148;48.554;7.834;2022-11-23T17:07:04;3.33;;;2.80;;
4268;SDS011;2148;48.554;7.834;2022-11-23T17:09:30;2.70;;;2.50;;